METAR Data
IDs: Format: Raw Decoded Include TAF

Data at: 0812 UTC 03 Aug 2021

NZWN 030800Z AUTO 20032G43KT 7000 BKN024/// BKN029/// BKN044/// 10/06 Q1009 NOSIG